sensor_id;sensor_type;location;lat;lon;timestamp;pressure;altitude;pressure_sealevel;temperature;humidity
60611;BME280;46439;51.164;13.572;2023-04-19T00:00:16;100530.52;;;10.56;100.00
60611;BME280;46439;51.164;13.572;2023-04-19T00:02:45;100525.04;;;10.48;100.00
60611;BME280;46439;51.164;13.572;2023-04-19T00:05:16;100520.01;;;10.40;100.00
60611;BME280;46439;51.164;13.572;2023-04-19T00:07:45;100516.69;;;10.42;100.00
60611;BME280;46439;51.164;13.572;2023-04-19T00:10:14;100503.80;;;10.47;100.00
60611;BME280;46439;51.164;13.572;2023-04-19T00:12:42;100516.63;;;10.39;100.00
60611;BME280;46439;51.164;13.572;2023-04-19T00:15:12;100513.96;;;10.61;100.00
60611;BME280;46439;51.164;13.572;2023-04-19T00:17:40;100512.66;;;10.66;100.00
60611;BME280;46439;51.164;13.572;2023-04-19T00:20:10;100513.91;;;10.73;100.00
60611;BME280;46439;51.164;13.572;2023-04-19T00:22:40;100513.52;;;10.80;100.00
60611;BME280;46439;51.164;13.572;2023-04-19T00:25:09;100521.60;;;10.85;100.00
60611;BME280;46439;51.164;13.572;2023-04-19T00:27:38;100526.64;;;10.92;100.00
60611;BME280;46439;51.164;13.572;2023-04-19T00:30:08;100519.42;;;10.97;100.00
60611;BME280;46439;51.164;13.572;2023-04-19T00:32:37;100508.58;;;11.09;100.00
60611;BME280;46439;51.164;13.572;2023-04-19T00:35:06;100504.43;;;11.12;100.00
60611;BME280;46439;51.164;13.572;2023-04-19T00:37:35;100509.23;;;11.18;100.00
60611;BME280;46439;51.164;13.572;2023-04-19T00:40:05;100573.21;;;11.18;100.00
60611;BME280;46439;51.164;13.572;2023-04-19T00:42:34;100509.30;;;11.07;100.00
60611;BME280;46439;51.164;13.572;2023-04-19T00:45:03;100491.36;;;11.02;100.00
60611;BME280;46439;51.164;13.572;2023-04-19T00:47:32;100478.36;;;11.00;100.00
60611;BME280;46439;51.164;13.572;2023-04-19T00:50:01;100475.18;;;11.06;100.00
60611;BME280;46439;51.164;13.572;2023-04-19T00:52:30;100468.73;;;10.93;100.00
60611;BME280;46439;51.164;13.572;2023-04-19T00:54:59;100465.34;;;10.63;100.00
60611;BME280;46439;51.164;13.572;2023-04-19T00:57:28;100466.41;;;10.41;100.00
60611;BME280;46439;51.164;13.572;2023-04-19T00:59:58;100471.02;;;10.28;100.00
60611;BME280;46439;51.164;13.572;2023-04-19T01:02:26;100467.02;;;10.29;100.00
60611;BME280;46439;51.164;13.572;2023-04-19T01:04:55;100471.66;;;10.27;100.00
60611;BME280;46439;51.164;13.572;2023-04-19T01:07:24;100480.98;;;10.38;100.00
60611;BME280;46439;51.164;13.572;2023-04-19T01:09:53;100480.36;;;10.47;100.00
60611;BME280;46439;51.164;13.572;2023-04-19T01:12:22;100485.31;;;10.48;100.00
60611;BME280;46439;51.164;13.572;2023-04-19T01:14:56;100483.31;;;10.58;100.00
60611;BME280;46439;51.164;13.572;2023-04-19T01:17:26;100483.27;;;10.52;100.00
60611;BME280;46439;51.164;13.572;2023-04-19T01:20:00;100483.18;;;10.58;100.00
60611;BME280;46439;51.164;13.572;2023-04-19T01:22:30;100487.21;;;10.62;100.00
60611;BME280;46439;51.164;13.572;2023-04-19T01:24:59;100484.27;;;10.66;100.00
60611;BME280;46439;51.164;13.572;2023-04-19T01:27:28;100495.77;;;10.56;100.00
60611;BME280;46439;51.164;13.572;2023-04-19T01:29:56;100496.85;;;10.56;100.00
60611;BME280;46439;51.164;13.572;2023-04-19T01:32:25;100564.91;;;10.62;100.00
60611;BME280;46439;51.164;13.572;2023-04-19T01:34:54;100570.30;;;10.63;100.00
60611;BME280;46439;51.164;13.572;2023-04-19T01:37:22;100524.77;;;10.47;100.00
60611;BME280;46439;51.164;13.572;2023-04-19T01:39:50;100505.55;;;10.55;100.00
60611;BME280;46439;51.164;13.572;2023-04-19T01:42:19;100483.06;;;10.72;100.00
60611;BME280;46439;51.164;13.572;2023-04-19T01:44:47;100458.39;;;10.59;100.00
60611;BME280;46439;51.164;13.572;2023-04-19T01:47:16;100443.33;;;10.40;100.00
60611;BME280;46439;51.164;13.572;2023-04-19T01:49:44;100444.41;;;10.30;100.00
60611;BME280;46439;51.164;13.572;2023-04-19T01:52:13;100443.52;;;10.38;100.00
60611;BME280;46439;51.164;13.572;2023-04-19T01:54:41;100445.75;;;10.29;100.00
60611;BME280;46439;51.164;13.572;2023-04-19T01:57:09;100457.22;;;10.11;100.00
60611;BME280;46439;51.164;13.572;2023-04-19T01:59:38;100468.25;;;10.05;100.00
60611;BME280;46439;51.164;13.572;2023-04-19T02:02:08;100472.71;;;9.99;100.00
60611;BME280;46439;51.164;13.572;2023-04-19T02:04:37;100467.48;;;9.95;100.00
60611;BME280;46439;51.164;13.572;2023-04-19T02:07:05;100476.83;;;10.15;100.00
60611;BME280;46439;51.164;13.572;2023-04-19T02:09:37;100480.93;;;10.23;100.00
60611;BME280;46439;51.164;13.572;2023-04-19T02:12:06;100490.91;;;10.13;100.00
60611;BME280;46439;51.164;13.572;2023-04-19T02:14:35;100502.02;;;10.35;100.00
60611;BME280;46439;51.164;13.572;2023-04-19T02:17:04;100504.89;;;10.45;100.00
60611;BME280;46439;51.164;13.572;2023-04-19T02:19:32;100508.98;;;10.28;100.00
60611;BME280;46439;51.164;13.572;2023-04-19T02:22:01;100518.86;;;10.11;100.00
60611;BME280;46439;51.164;13.572;2023-04-19T02:24:29;100525.91;;;10.04;100.00
60611;BME280;46439;51.164;13.572;2023-04-19T02:26:58;100545.24;;;10.05;100.00
60611;BME280;46439;51.164;13.572;2023-04-19T02:29:26;100628.47;;;10.14;100.00
60611;BME280;46439;51.164;13.572;2023-04-19T02:31:55;100574.05;;;10.16;100.00
60611;BME280;46439;51.164;13.572;2023-04-19T02:34:23;100528.64;;;10.20;100.00
60611;BME280;46439;51.164;13.572;2023-04-19T02:36:52;100506.43;;;10.16;100.00
60611;BME280;46439;51.164;13.572;2023-04-19T02:39:20;100501.50;;;10.22;100.00
60611;BME280;46439;51.164;13.572;2023-04-19T02:41:49;100495.67;;;10.35;100.00
60611;BME280;46439;51.164;13.572;2023-04-19T02:44:18;100497.86;;;10.35;100.00
60611;BME280;46439;51.164;13.572;2023-04-19T02:46:50;100492.87;;;10.34;100.00
60611;BME280;46439;51.164;13.572;2023-04-19T02:49:17;100494.29;;;10.24;100.00
60611;BME280;46439;51.164;13.572;2023-04-19T02:51:46;100503.98;;;10.23;100.00
60611;BME280;46439;51.164;13.572;2023-04-19T02:54:15;100497.15;;;10.21;100.00
60611;BME280;46439;51.164;13.572;2023-04-19T02:56:43;100496.77;;;10.17;100.00
60611;BME280;46439;51.164;13.572;2023-04-19T02:59:12;100498.80;;;10.19;100.00
60611;BME280;46439;51.164;13.572;2023-04-19T03:01:40;100503.23;;;10.21;100.00
60611;BME280;46439;51.164;13.572;2023-04-19T03:04:08;100492.57;;;10.14;100.00
60611;BME280;46439;51.164;13.572;2023-04-19T03:06:37;100493.95;;;10.07;100.00
60611;BME280;46439;51.164;13.572;2023-04-19T03:09:05;100507.09;;;10.05;100.00
60611;BME280;46439;51.164;13.572;2023-04-19T03:11:34;100505.78;;;9.99;100.00
60611;BME280;46439;51.164;13.572;2023-04-19T03:14:02;100508.93;;;9.98;100.00
60611;BME280;46439;51.164;13.572;2023-04-19T03:16:31;100500.61;;;9.96;100.00
60611;BME280;46439;51.164;13.572;2023-04-19T03:19:00;100521.71;;;9.89;100.00
60611;BME280;46439;51.164;13.572;2023-04-19T03:21:29;100569.55;;;9.78;100.00
60611;BME280;46439;51.164;13.572;2023-04-19T03:23:57;100530.61;;;9.74;100.00
60611;BME280;46439;51.164;13.572;2023-04-19T03:26:26;100505.75;;;9.73;100.00
60611;BME280;46439;51.164;13.572;2023-04-19T03:28:55;100488.34;;;9.74;100.00
60611;BME280;46439;51.164;13.572;2023-04-19T03:31:23;100479.60;;;9.71;100.00
60611;BME280;46439;51.164;13.572;2023-04-19T03:33:51;100466.14;;;9.63;100.00
60611;BME280;46439;51.164;13.572;2023-04-19T03:36:20;100458.87;;;9.59;100.00
60611;BME280;46439;51.164;13.572;2023-04-19T03:38:48;100448.22;;;9.58;100.00
60611;BME280;46439;51.164;13.572;2023-04-19T03:41:21;100452.33;;;9.61;100.00
60611;BME280;46439;51.164;13.572;2023-04-19T03:43:50;100444.02;;;9.65;100.00
60611;BME280;46439;51.164;13.572;2023-04-19T03:46:18;100437.73;;;9.69;100.00
60611;BME280;46439;51.164;13.572;2023-04-19T03:48:48;100443.88;;;9.72;100.00
60611;BME280;46439;51.164;13.572;2023-04-19T03:51:16;100441.93;;;9.73;100.00
60611;BME280;46439;51.164;13.572;2023-04-19T03:53:45;100435.98;;;9.80;100.00
60611;BME280;46439;51.164;13.572;2023-04-19T03:56:13;100432.10;;;9.85;100.00
60611;BME280;46439;51.164;13.572;2023-04-19T03:58:42;100425.88;;;9.89;100.00
60611;BME280;46439;51.164;13.572;2023-04-19T04:01:18;100416.38;;;9.91;100.00
60611;BME280;46439;51.164;13.572;2023-04-19T04:03:47;100414.14;;;9.91;100.00
60611;BME280;46439;51.164;13.572;2023-04-19T04:06:15;100420.99;;;9.86;100.00
60611;BME280;46439;51.164;13.572;2023-04-19T04:08:43;100423.59;;;9.80;100.00
60611;BME280;46439;51.164;13.572;2023-04-19T04:11:13;100423.81;;;9.71;100.00
60611;BME280;46439;51.164;13.572;2023-04-19T04:13:41;100422.32;;;9.66;100.00
60611;BME280;46439;51.164;13.572;2023-04-19T04:16:10;100430.54;;;9.64;100.00
60611;BME280;46439;51.164;13.572;2023-04-19T04:18:38;100440.95;;;9.60;100.00
60611;BME280;46439;51.164;13.572;2023-04-19T04:21:07;100503.27;;;9.47;100.00
60611;BME280;46439;51.164;13.572;2023-04-19T04:23:36;100472.52;;;9.40;100.00
60611;BME280;46439;51.164;13.572;2023-04-19T04:26:06;100446.36;;;9.39;100.00
60611;BME280;46439;51.164;13.572;2023-04-19T04:28:37;100426.95;;;9.37;100.00
60611;BME280;46439;51.164;13.572;2023-04-19T04:31:05;100418.38;;;9.23;100.00
60611;BME280;46439;51.164;13.572;2023-04-19T04:33:34;100421.50;;;9.12;100.00
60611;BME280;46439;51.164;13.572;2023-04-19T04:36:03;100424.59;;;9.01;100.00
60611;BME280;46439;51.164;13.572;2023-04-19T04:38:32;100414.30;;;8.93;100.00
60611;BME280;46439;51.164;13.572;2023-04-19T04:41:00;100412.17;;;8.98;100.00
60611;BME280;46439;51.164;13.572;2023-04-19T04:43:30;100408.04;;;8.98;100.00
60611;BME280;46439;51.164;13.572;2023-04-19T04:45:59;100402.11;;;8.89;100.00
60611;BME280;46439;51.164;13.572;2023-04-19T04:48:28;100402.88;;;8.83;100.00
60611;BME280;46439;51.164;13.572;2023-04-19T04:50:57;100403.46;;;8.79;100.00
60611;BME280;46439;51.164;13.572;2023-04-19T04:53:27;100400.67;;;8.77;100.00
60611;BME280;46439;51.164;13.572;2023-04-19T04:55:56;100400.59;;;8.69;100.00
60611;BME280;46439;51.164;13.572;2023-04-19T04:58:24;100401.97;;;8.62;100.00
60611;BME280;46439;51.164;13.572;2023-04-19T05:00:53;100405.73;;;8.55;100.00
60611;BME280;46439;51.164;13.572;2023-04-19T05:03:21;100407.77;;;8.53;100.00
60611;BME280;46439;51.164;13.572;2023-04-19T05:05:50;100416.41;;;8.52;100.00
60611;BME280;46439;51.164;13.572;2023-04-19T05:08:18;100415.19;;;8.50;100.00
60611;BME280;46439;51.164;13.572;2023-04-19T05:10:47;100412.40;;;8.55;100.00
60611;BME280;46439;51.164;13.572;2023-04-19T05:13:15;100404.81;;;8.61;100.00
60611;BME280;46439;51.164;13.572;2023-04-19T05:15:46;100406.25;;;8.62;100.00
60611;BME280;46439;51.164;13.572;2023-04-19T05:18:15;100400.47;;;8.64;100.00
60611;BME280;46439;51.164;13.572;2023-04-19T05:20:44;100406.58;;;8.63;100.00
60611;BME280;46439;51.164;13.572;2023-04-19T05:23:14;100400.64;;;8.52;100.00
60611;BME280;46439;51.164;13.572;2023-04-19T05:25:42;100433.88;;;8.46;100.00
60611;BME280;46439;51.164;13.572;2023-04-19T05:28:11;100452.22;;;8.42;100.00
60611;BME280;46439;51.164;13.572;2023-04-19T05:30:39;100421.12;;;8.37;100.00
60611;BME280;46439;51.164;13.572;2023-04-19T05:33:08;100392.83;;;8.32;100.00
60611;BME280;46439;51.164;13.572;2023-04-19T05:35:36;100379.22;;;8.30;100.00
60611;BME280;46439;51.164;13.572;2023-04-19T05:38:05;100372.36;;;8.30;100.00
60611;BME280;46439;51.164;13.572;2023-04-19T05:40:34;100371.65;;;8.26;100.00
60611;BME280;46439;51.164;13.572;2023-04-19T05:43:02;100368.09;;;8.27;100.00
60611;BME280;46439;51.164;13.572;2023-04-19T05:45:31;100362.45;;;8.32;100.00
60611;BME280;46439;51.164;13.572;2023-04-19T05:47:59;100361.04;;;8.32;100.00
60611;BME280;46439;51.164;13.572;2023-04-19T05:50:28;100359.91;;;8.33;100.00
60611;BME280;46439;51.164;13.572;2023-04-19T05:52:57;100359.64;;;8.26;100.00
60611;BME280;46439;51.164;13.572;2023-04-19T05:55:25;100351.98;;;8.29;100.00
60611;BME280;46439;51.164;13.572;2023-04-19T05:57:54;100352.63;;;8.35;100.00
60611;BME280;46439;51.164;13.572;2023-04-19T06:00:22;100346.27;;;8.45;100.00
60611;BME280;46439;51.164;13.572;2023-04-19T06:02:51;100343.11;;;8.46;100.00
60611;BME280;46439;51.164;13.572;2023-04-19T06:05:20;100337.29;;;8.45;100.00
60611;BME280;46439;51.164;13.572;2023-04-19T06:07:48;100337.26;;;8.55;100.00
60611;BME280;46439;51.164;13.572;2023-04-19T06:10:17;100324.52;;;8.65;100.00
60611;BME280;46439;51.164;13.572;2023-04-19T06:12:45;100313.14;;;8.73;100.00
60611;BME280;46439;51.164;13.572;2023-04-19T06:15:14;100312.67;;;8.78;100.00
60611;BME280;46439;51.164;13.572;2023-04-19T06:17:43;100314.73;;;8.75;100.00
60611;BME280;46439;51.164;13.572;2023-04-19T06:20:12;100318.23;;;8.71;100.00
60611;BME280;46439;51.164;13.572;2023-04-19T06:22:45;100339.07;;;8.72;100.00
60611;BME280;46439;51.164;13.572;2023-04-19T06:25:14;100338.55;;;8.68;100.00
60611;BME280;46439;51.164;13.572;2023-04-19T06:27:42;100333.98;;;8.52;100.00
60611;BME280;46439;51.164;13.572;2023-04-19T06:30:11;100337.20;;;8.30;100.00
60611;BME280;46439;51.164;13.572;2023-04-19T06:32:40;100348.45;;;8.16;100.00
60611;BME280;46439;51.164;13.572;2023-04-19T06:35:10;100366.50;;;8.06;100.00
60611;BME280;46439;51.164;13.572;2023-04-19T06:37:39;100400.71;;;8.11;100.00
60611;BME280;46439;51.164;13.572;2023-04-19T06:40:09;100391.69;;;8.27;100.00
60611;BME280;46439;51.164;13.572;2023-04-19T06:42:38;100354.15;;;8.38;100.00
60611;BME280;46439;51.164;13.572;2023-04-19T06:45:10;100344.45;;;8.51;100.00
60611;BME280;46439;51.164;13.572;2023-04-19T06:47:39;100336.65;;;8.53;100.00
60611;BME280;46439;51.164;13.572;2023-04-19T06:50:09;100329.21;;;8.49;100.00
60611;BME280;46439;51.164;13.572;2023-04-19T06:52:38;100326.01;;;8.47;100.00
60611;BME280;46439;51.164;13.572;2023-04-19T06:55:08;100321.15;;;8.47;100.00
60611;BME280;46439;51.164;13.572;2023-04-19T06:57:37;100314.95;;;8.43;100.00
60611;BME280;46439;51.164;13.572;2023-04-19T07:00:07;100317.39;;;8.45;100.00
60611;BME280;46439;51.164;13.572;2023-04-19T07:02:36;100306.65;;;8.47;100.00
60611;BME280;46439;51.164;13.572;2023-04-19T07:05:06;100300.73;;;8.54;100.00
60611;BME280;46439;51.164;13.572;2023-04-19T07:07:35;100302.09;;;8.56;100.00
60611;BME280;46439;51.164;13.572;2023-04-19T07:10:06;100295.50;;;8.58;100.00
60611;BME280;46439;51.164;13.572;2023-04-19T07:12:35;100296.27;;;8.70;100.00
60611;BME280;46439;51.164;13.572;2023-04-19T07:15:05;100329.45;;;8.72;100.00
60611;BME280;46439;51.164;13.572;2023-04-19T07:17:36;100296.40;;;8.70;100.00
60611;BME280;46439;51.164;13.572;2023-04-19T07:20:06;100272.53;;;8.80;100.00
60611;BME280;46439;51.164;13.572;2023-04-19T07:22:35;100258.70;;;8.91;100.00
60611;BME280;46439;51.164;13.572;2023-04-19T07:25:05;100260.89;;;8.99;100.00
60611;BME280;46439;51.164;13.572;2023-04-19T07:27:33;100248.77;;;8.91;100.00
60611;BME280;46439;51.164;13.572;2023-04-19T07:30:02;100244.95;;;8.82;100.00
60611;BME280;46439;51.164;13.572;2023-04-19T07:32:31;100246.70;;;8.70;100.00
60611;BME280;46439;51.164;13.572;2023-04-19T07:35:00;100241.90;;;8.76;100.00
60611;BME280;46439;51.164;13.572;2023-04-19T07:37:28;100238.88;;;8.85;100.00
60611;BME280;46439;51.164;13.572;2023-04-19T07:39:57;100243.30;;;8.94;100.00
60611;BME280;46439;51.164;13.572;2023-04-19T07:42:28;100287.46;;;8.95;100.00
60611;BME280;46439;51.164;13.572;2023-04-19T07:44:57;100258.00;;;8.89;100.00
60611;BME280;46439;51.164;13.572;2023-04-19T07:47:27;100234.05;;;9.11;100.00
60611;BME280;46439;51.164;13.572;2023-04-19T07:49:55;100223.36;;;9.09;100.00
60611;BME280;46439;51.164;13.572;2023-04-19T07:52:24;100210.60;;;9.08;100.00
60611;BME280;46439;51.164;13.572;2023-04-19T07:54:52;100207.34;;;9.15;100.00
60611;BME280;46439;51.164;13.572;2023-04-19T07:57:21;100209.48;;;9.27;100.00
60611;BME280;46439;51.164;13.572;2023-04-19T07:59:49;100214.84;;;9.39;100.00
60611;BME280;46439;51.164;13.572;2023-04-19T08:02:18;100211.21;;;9.44;100.00
60611;BME280;46439;51.164;13.572;2023-04-19T08:04:47;100212.20;;;9.43;100.00
60611;BME280;46439;51.164;13.572;2023-04-19T08:07:16;100204.98;;;9.44;100.00
60611;BME280;46439;51.164;13.572;2023-04-19T08:09:45;100207.61;;;9.50;100.00
60611;BME280;46439;51.164;13.572;2023-04-19T08:12:13;100258.37;;;9.58;100.00
60611;BME280;46439;51.164;13.572;2023-04-19T08:14:42;100214.05;;;9.67;100.00
60611;BME280;46439;51.164;13.572;2023-04-19T08:17:10;100192.80;;;9.72;100.00
60611;BME280;46439;51.164;13.572;2023-04-19T08:19:39;100186.66;;;9.75;100.00
60611;BME280;46439;51.164;13.572;2023-04-19T08:22:08;100184.21;;;9.83;100.00
60611;BME280;46439;51.164;13.572;2023-04-19T08:24:36;100183.23;;;9.87;100.00
60611;BME280;46439;51.164;13.572;2023-04-19T08:27:05;100175.41;;;9.81;100.00
60611;BME280;46439;51.164;13.572;2023-04-19T08:29:33;100198.13;;;9.77;100.00
60611;BME280;46439;51.164;13.572;2023-04-19T08:32:02;100221.98;;;9.92;100.00
60611;BME280;46439;51.164;13.572;2023-04-19T08:34:30;99948.34;;;10.04;100.00
60611;BME280;46439;51.164;13.572;2023-04-19T08:37:01;99919.88;;;9.98;100.00
60611;BME280;46439;51.164;13.572;2023-04-19T08:39:30;99936.26;;;9.76;100.00
60611;BME280;46439;51.164;13.572;2023-04-19T08:42:04;99920.80;;;9.89;100.00
60611;BME280;46439;51.164;13.572;2023-04-19T08:44:34;99902.20;;;10.11;100.00
60611;BME280;46439;51.164;13.572;2023-04-19T08:47:06;99893.05;;;10.24;100.00
60611;BME280;46439;51.164;13.572;2023-04-19T08:49:36;99888.60;;;10.33;100.00
60611;BME280;46439;51.164;13.572;2023-04-19T08:52:06;99891.34;;;10.42;100.00
60611;BME280;46439;51.164;13.572;2023-04-19T08:54:37;99863.77;;;10.48;100.00
60611;BME280;46439;51.164;13.572;2023-04-19T08:57:06;99847.73;;;10.51;100.00
60611;BME280;46439;51.164;13.572;2023-04-19T08:59:36;99859.46;;;10.59;100.00
60611;BME280;46439;51.164;13.572;2023-04-19T09:02:04;99852.25;;;10.67;100.00
60611;BME280;46439;51.164;13.572;2023-04-19T09:04:32;99855.33;;;10.77;100.00
60611;BME280;46439;51.164;13.572;2023-04-19T09:07:01;99842.94;;;10.87;100.00
60611;BME280;46439;51.164;13.572;2023-04-19T09:09:30;99811.39;;;10.97;100.00
60611;BME280;46439;51.164;13.572;2023-04-19T09:11:59;99782.20;;;11.03;100.00
60611;BME280;46439;51.164;13.572;2023-04-19T09:14:28;99752.35;;;10.94;100.00
60611;BME280;46439;51.164;13.572;2023-04-19T09:17:12;99730.91;;;10.71;100.00
60611;BME280;46439;51.164;13.572;2023-04-19T09:19:48;99719.63;;;10.86;100.00
60611;BME280;46439;51.164;13.572;2023-04-19T09:22:17;99706.72;;;10.87;100.00
60611;BME280;46439;51.164;13.572;2023-04-19T09:24:45;99703.69;;;11.16;100.00
60611;BME280;46439;51.164;13.572;2023-04-19T09:27:15;99703.67;;;11.28;100.00
60611;BME280;46439;51.164;13.572;2023-04-19T09:29:47;99702.67;;;11.35;100.00
60611;BME280;46439;51.164;13.572;2023-04-19T09:32:19;99699.15;;;11.29;100.00
60611;BME280;46439;51.164;13.572;2023-04-19T09:34:53;99698.11;;;11.40;100.00
60611;BME280;46439;51.164;13.572;2023-04-19T09:37:22;99685.29;;;11.53;100.00
60611;BME280;46439;51.164;13.572;2023-04-19T09:39:51;99682.20;;;11.59;100.00
60611;BME280;46439;51.164;13.572;2023-04-19T09:42:20;99685.88;;;11.60;100.00
60611;BME280;46439;51.164;13.572;2023-04-19T09:44:58;99679.89;;;11.66;100.00
60611;BME280;46439;51.164;13.572;2023-04-19T09:47:28;99674.94;;;11.71;100.00
60611;BME280;46439;51.164;13.572;2023-04-19T09:50:09;99684.28;;;11.61;100.00
60611;BME280;46439;51.164;13.572;2023-04-19T09:52:38;99660.23;;;11.76;100.00
60611;BME280;46439;51.164;13.572;2023-04-19T09:55:08;99649.37;;;11.86;100.00
60611;BME280;46439;51.164;13.572;2023-04-19T09:57:37;99646.48;;;11.95;100.00
60611;BME280;46439;51.164;13.572;2023-04-19T10:00:07;99649.08;;;11.96;100.00
60611;BME280;46439;51.164;13.572;2023-04-19T10:02:41;99649.64;;;11.93;100.00
60611;BME280;46439;51.164;13.572;2023-04-19T10:05:11;99688.20;;;11.96;100.00
60611;BME280;46439;51.164;13.572;2023-04-19T10:07:39;99695.70;;;11.98;100.00
60611;BME280;46439;51.164;13.572;2023-04-19T10:10:10;99648.81;;;12.05;100.00
60611;BME280;46439;51.164;13.572;2023-04-19T10:12:39;99626.53;;;12.14;100.00
60611;BME280;46439;51.164;13.572;2023-04-19T10:15:10;99601.86;;;12.23;100.00
60611;BME280;46439;51.164;13.572;2023-04-19T10:17:41;99600.70;;;12.29;100.00
60611;BME280;46439;51.164;13.572;2023-04-19T10:20:25;99602.97;;;12.25;100.00
60611;BME280;46439;51.164;13.572;2023-04-19T10:22:54;99600.77;;;12.29;100.00
60611;BME280;46439;51.164;13.572;2023-04-19T10:25:29;99668.02;;;12.45;100.00
60611;BME280;46439;51.164;13.572;2023-04-19T10:27:58;99655.23;;;12.58;100.00
60611;BME280;46439;51.164;13.572;2023-04-19T10:30:27;99654.51;;;12.51;100.00
60611;BME280;46439;51.164;13.572;2023-04-19T10:32:57;99654.27;;;12.40;100.00
60611;BME280;46439;51.164;13.572;2023-04-19T10:35:28;99667.35;;;12.40;100.00
60611;BME280;46439;51.164;13.572;2023-04-19T10:38:08;99681.38;;;12.45;100.00
60611;BME280;46439;51.164;13.572;2023-04-19T10:40:55;99709.13;;;12.57;100.00
60611;BME280;46439;51.164;13.572;2023-04-19T10:43:25;99714.88;;;12.66;100.00
60611;BME280;46439;51.164;13.572;2023-04-19T10:45:54;99715.63;;;12.77;100.00
60611;BME280;46439;51.164;13.572;2023-04-19T10:48:50;99732.61;;;12.70;100.00
60611;BME280;46439;51.164;13.572;2023-04-19T10:51:25;99739.28;;;12.82;100.00
60611;BME280;46439;51.164;13.572;2023-04-19T10:53:59;99755.63;;;12.91;100.00
60611;BME280;46439;51.164;13.572;2023-04-19T10:56:58;99776.44;;;12.98;100.00
60611;BME280;46439;51.164;13.572;2023-04-19T10:59:29;99814.64;;;12.95;100.00
60611;BME280;46439;51.164;13.572;2023-04-19T11:01:59;99849.02;;;12.94;100.00
60611;BME280;46439;51.164;13.572;2023-04-19T11:04:58;99861.18;;;12.94;100.00
60611;BME280;46439;51.164;13.572;2023-04-19T11:07:28;99868.13;;;13.01;100.00
60611;BME280;46439;51.164;13.572;2023-04-19T11:10:04;99848.76;;;13.10;100.00
60611;BME280;46439;51.164;13.572;2023-04-19T11:12:34;99852.55;;;13.26;100.00
60611;BME280;46439;51.164;13.572;2023-04-19T11:15:04;99857.38;;;13.42;100.00
60611;BME280;46439;51.164;13.572;2023-04-19T11:17:33;99864.31;;;13.51;100.00
60611;BME280;46439;51.164;13.572;2023-04-19T11:20:03;99880.78;;;13.56;100.00
60611;BME280;46439;51.164;13.572;2023-04-19T11:22:37;99887.77;;;13.40;100.00
60611;BME280;46439;51.164;13.572;2023-04-19T11:25:09;99908.25;;;13.14;100.00
60611;BME280;46439;51.164;13.572;2023-04-19T11:27:38;99918.88;;;12.93;100.00
60611;BME280;46439;51.164;13.572;2023-04-19T11:30:10;99932.92;;;12.83;100.00
60611;BME280;46439;51.164;13.572;2023-04-19T11:32:45;99943.52;;;12.77;100.00
60611;BME280;46439;51.164;13.572;2023-04-19T11:35:16;99964.15;;;12.69;100.00
60611;BME280;46439;51.164;13.572;2023-04-19T11:37:46;99969.03;;;12.76;100.00
60611;BME280;46439;51.164;13.572;2023-04-19T11:40:17;99987.29;;;12.74;100.00
60611;BME280;46439;51.164;13.572;2023-04-19T11:42:54;100000.77;;;12.61;100.00
60611;BME280;46439;51.164;13.572;2023-04-19T11:45:27;100005.89;;;12.54;100.00
60611;BME280;46439;51.164;13.572;2023-04-19T11:47:57;100007.84;;;12.60;100.00
60611;BME280;46439;51.164;13.572;2023-04-19T11:50:36;100026.42;;;12.66;100.00
60611;BME280;46439;51.164;13.572;2023-04-19T11:53:13;100035.94;;;12.64;100.00
60611;BME280;46439;51.164;13.572;2023-04-19T11:55:48;100046.91;;;12.63;100.00
60611;BME280;46439;51.164;13.572;2023-04-19T11:58:29;100041.20;;;12.55;100.00
60611;BME280;46439;51.164;13.572;2023-04-19T12:01:04;100039.77;;;12.41;100.00
60611;BME280;46439;51.164;13.572;2023-04-19T12:03:34;100042.29;;;12.37;100.00
60611;BME280;46439;51.164;13.572;2023-04-19T12:06:11;100046.60;;;12.34;100.00
60611;BME280;46439;51.164;13.572;2023-04-19T12:08:44;100041.55;;;12.33;100.00
60611;BME280;46439;51.164;13.572;2023-04-19T12:11:15;100049.77;;;12.25;100.00
60611;BME280;46439;51.164;13.572;2023-04-19T12:13:44;100048.17;;;12.27;100.00
60611;BME280;46439;51.164;13.572;2023-04-19T12:16:13;100056.16;;;12.21;100.00
60611;BME280;46439;51.164;13.572;2023-04-19T12:18:47;100057.60;;;12.20;100.00
60611;BME280;46439;51.164;13.572;2023-04-19T12:21:28;100052.19;;;12.26;100.00
60611;BME280;46439;51.164;13.572;2023-04-19T12:23:59;100050.35;;;12.29;100.00
60611;BME280;46439;51.164;13.572;2023-04-19T12:26:29;100054.11;;;12.26;100.00
60611;BME280;46439;51.164;13.572;2023-04-19T12:28:58;100050.45;;;12.33;100.00
60611;BME280;46439;51.164;13.572;2023-04-19T12:31:28;100051.31;;;12.36;100.00
60611;BME280;46439;51.164;13.572;2023-04-19T12:33:59;100052.25;;;12.37;100.00
60611;BME280;46439;51.164;13.572;2023-04-19T12:36:27;100049.52;;;12.34;100.00
60611;BME280;46439;51.164;13.572;2023-04-19T12:38:57;100038.79;;;12.30;100.00
60611;BME280;46439;51.164;13.572;2023-04-19T12:41:25;100041.64;;;12.35;100.00
60611;BME280;46439;51.164;13.572;2023-04-19T12:43:54;100026.41;;;12.36;100.00
60611;BME280;46439;51.164;13.572;2023-04-19T12:46:23;100021.33;;;12.45;100.00
60611;BME280;46439;51.164;13.572;2023-04-19T12:48:51;100018.05;;;12.60;100.00
60611;BME280;46439;51.164;13.572;2023-04-19T12:51:20;100028.68;;;12.68;100.00